sensor_id;sensor_type;location;lat;lon;timestamp;pressure;altitude;pressure_sealevel;temperature;humidity
63582;BME280;49727;51.078;17.066;2023-02-11T00:11:53;101695.16;;;-0.58;71.04
63582;BME280;49727;51.078;17.066;2023-02-11T00:26:54;101687.03;;;-0.50;70.41
63582;BME280;49727;51.078;17.066;2023-02-11T00:41:55;101666.22;;;-0.53;70.35
63582;BME280;49727;51.078;17.066;2023-02-11T00:56:55;101647.72;;;-0.71;69.93
63582;BME280;49727;51.078;17.066;2023-02-11T01:11:56;101642.69;;;-0.77;70.17
63582;BME280;49727;51.078;17.066;2023-02-11T01:26:56;101620.44;;;-0.87;70.64
63582;BME280;49727;51.078;17.066;2023-02-11T01:41:57;101590.03;;;-1.12;71.17
63582;BME280;49727;51.078;17.066;2023-02-11T01:56:58;101558.69;;;-0.91;71.18
63582;BME280;49727;51.078;17.066;2023-02-11T02:12:18;101540.63;;;-0.97;71.92
63582;BME280;49727;51.078;17.066;2023-02-11T02:42:38;101489.47;;;-0.43;71.77
63582;BME280;49727;51.078;17.066;2023-02-11T03:12:53;101442.16;;;0.19;69.77
63582;BME280;49727;51.078;17.066;2023-02-11T03:28:19;101445.41;;;0.24;69.41
63582;BME280;49727;51.078;17.066;2023-02-11T03:43:29;101452.91;;;0.32;68.84
63582;BME280;49727;51.078;17.066;2023-02-11T03:58:31;101438.22;;;0.47;68.32
63582;BME280;49727;51.078;17.066;2023-02-11T04:13:31;101403.69;;;0.56;67.97
63582;BME280;49727;51.078;17.066;2023-02-11T04:28:32;101386.88;;;0.60;67.38
63582;BME280;49727;51.078;17.066;2023-02-11T04:43:33;101360.94;;;0.54;67.10
63582;BME280;49727;51.078;17.066;2023-02-11T04:58:34;101386.63;;;0.47;66.59
63582;BME280;49727;51.078;17.066;2023-02-11T05:13:34;101345.59;;;0.46;66.57
63582;BME280;49727;51.078;17.066;2023-02-11T05:28:35;101327.56;;;0.58;66.32
63582;BME280;49727;51.078;17.066;2023-02-11T05:43:36;101307.25;;;0.61;65.54
63582;BME280;49727;51.078;17.066;2023-02-11T05:58:36;101323.44;;;0.70;65.39
63582;BME280;49727;51.078;17.066;2023-02-11T06:13:37;101325.78;;;0.76;65.52
63582;BME280;49727;51.078;17.066;2023-02-11T06:28:38;101311.00;;;0.91;65.30
63582;BME280;49727;51.078;17.066;2023-02-11T06:43:39;101303.34;;;1.04;65.27
63582;BME280;49727;51.078;17.066;2023-02-11T06:58:39;101291.53;;;1.28;64.99
63582;BME280;49727;51.078;17.066;2023-02-11T07:13:40;101285.97;;;1.50;64.96
63582;BME280;49727;51.078;17.066;2023-02-11T07:28:41;101278.25;;;1.79;64.62
63582;BME280;49727;51.078;17.066;2023-02-11T07:43:43;101266.56;;;1.99;63.90
63582;BME280;49727;51.078;17.066;2023-02-11T07:58:44;101267.38;;;2.16;63.27
63582;BME280;49727;51.078;17.066;2023-02-11T08:13:44;101281.38;;;2.47;63.68
63582;BME280;49727;51.078;17.066;2023-02-11T08:28:47;101289.34;;;2.60;63.25
63582;BME280;49727;51.078;17.066;2023-02-11T08:43:49;101298.66;;;2.51;63.22
63582;BME280;49727;51.078;17.066;2023-02-11T08:58:50;101272.06;;;2.56;63.91
63582;BME280;49727;51.078;17.066;2023-02-11T09:13:50;101255.84;;;2.78;64.54
63582;BME280;49727;51.078;17.066;2023-02-11T09:28:51;101225.91;;;3.22;65.26
63582;BME280;49727;51.078;17.066;2023-02-11T09:43:56;101194.09;;;3.80;67.00
63582;BME280;49727;51.078;17.066;2023-02-11T09:58:57;101187.66;;;4.50;67.73
63582;BME280;49727;51.078;17.066;2023-02-11T10:44:35;101148.31;;;5.21;68.24
63582;BME280;49727;51.078;17.066;2023-02-11T10:59:37;101144.66;;;5.35;68.45
63582;BME280;49727;51.078;17.066;2023-02-11T11:14:39;101161.06;;;5.27;68.41
63582;BME280;49727;51.078;17.066;2023-02-11T11:29:48;101157.41;;;5.41;68.52
63582;BME280;49727;51.078;17.066;2023-02-11T11:45:25;101129.06;;;5.67;68.31
63582;BME280;49727;51.078;17.066;2023-02-11T12:01:05;101134.25;;;5.80;67.88
63582;BME280;49727;51.078;17.066;2023-02-11T12:16:18;101123.84;;;5.66;67.99
63582;BME280;49727;51.078;17.066;2023-02-11T12:31:37;101105.81;;;5.59;69.21
63582;BME280;49727;51.078;17.066;2023-02-11T12:46:55;101093.25;;;5.74;68.38
63582;BME280;49727;51.078;17.066;2023-02-11T13:02:08;101082.59;;;5.52;69.11
63582;BME280;49727;51.078;17.066;2023-02-11T13:17:21;101084.81;;;5.69;69.01
63582;BME280;49727;51.078;17.066;2023-02-11T13:32:24;101077.38;;;5.74;69.03
63582;BME280;49727;51.078;17.066;2023-02-11T13:47:31;101073.88;;;5.74;68.67
63582;BME280;49727;51.078;17.066;2023-02-11T14:02:35;101090.09;;;5.69;69.16
63582;BME280;49727;51.078;17.066;2023-02-11T14:17:54;101080.69;;;5.54;69.45
63582;BME280;49727;51.078;17.066;2023-02-11T14:48:26;101115.00;;;5.42;70.05
63582;BME280;49727;51.078;17.066;2023-02-11T15:18:33;101136.88;;;4.96;72.12
63582;BME280;49727;51.078;17.066;2023-02-11T15:33:34;101159.19;;;4.79;72.87
63582;BME280;49727;51.078;17.066;2023-02-11T15:48:43;101172.13;;;4.58;74.07
63582;BME280;49727;51.078;17.066;2023-02-11T16:03:48;101178.88;;;4.36;74.93
63582;BME280;49727;51.078;17.066;2023-02-11T16:18:51;101170.75;;;4.39;75.39
63582;BME280;49727;51.078;17.066;2023-02-11T16:33:53;101191.97;;;4.38;76.24
63582;BME280;49727;51.078;17.066;2023-02-11T16:48:54;101206.13;;;4.50;76.57
63582;BME280;49727;51.078;17.066;2023-02-11T17:03:55;101230.91;;;4.60;76.83
63582;BME280;49727;51.078;17.066;2023-02-11T17:18:55;101259.72;;;4.63;77.18
63582;BME280;49727;51.078;17.066;2023-02-11T17:33:56;101269.75;;;4.71;77.60
63582;BME280;49727;51.078;17.066;2023-02-11T17:48:57;101301.88;;;4.78;77.78
63582;BME280;49727;51.078;17.066;2023-02-11T18:03:59;101307.16;;;4.78;77.88
63582;BME280;49727;51.078;17.066;2023-02-11T18:19:00;101301.53;;;4.82;77.79
63582;BME280;49727;51.078;17.066;2023-02-11T18:34:01;101316.66;;;4.80;78.18
63582;BME280;49727;51.078;17.066;2023-02-11T18:49:02;101300.59;;;4.70;78.61
63582;BME280;49727;51.078;17.066;2023-02-11T19:04:03;101324.38;;;4.70;79.24
63582;BME280;49727;51.078;17.066;2023-02-11T19:19:04;101337.25;;;4.75;79.17
63582;BME280;49727;51.078;17.066;2023-02-11T19:34:05;101354.78;;;4.76;79.48
63582;BME280;49727;51.078;17.066;2023-02-11T19:49:06;101355.38;;;4.80;79.66
63582;BME280;49727;51.078;17.066;2023-02-11T20:04:07;101379.69;;;4.85;79.46
63582;BME280;49727;51.078;17.066;2023-02-11T20:19:08;101395.31;;;4.88;79.61
63582;BME280;49727;51.078;17.066;2023-02-11T20:34:09;101407.19;;;4.95;79.97
63582;BME280;49727;51.078;17.066;2023-02-11T20:49:11;101419.13;;;5.01;79.92
63582;BME280;49727;51.078;17.066;2023-02-11T21:04:16;101441.63;;;5.06;80.04
63582;BME280;49727;51.078;17.066;2023-02-11T21:19:17;101459.78;;;5.11;80.25
63582;BME280;49727;51.078;17.066;2023-02-11T21:34:18;101474.41;;;5.17;80.32
63582;BME280;49727;51.078;17.066;2023-02-11T21:49:19;101495.56;;;5.17;80.23
63582;BME280;49727;51.078;17.066;2023-02-11T22:04:20;101521.00;;;5.18;80.60
63582;BME280;49727;51.078;17.066;2023-02-11T22:19:20;101535.69;;;5.22;80.32
63582;BME280;49727;51.078;17.066;2023-02-11T22:34:22;101560.44;;;5.21;80.97
63582;BME280;49727;51.078;17.066;2023-02-11T22:49:23;101571.00;;;5.21;80.60
63582;BME280;49727;51.078;17.066;2023-02-11T23:04:24;101585.78;;;5.23;80.95
63582;BME280;49727;51.078;17.066;2023-02-11T23:19:24;101581.38;;;5.24;80.78
63582;BME280;49727;51.078;17.066;2023-02-11T23:34:25;101602.50;;;5.24;80.87
63582;BME280;49727;51.078;17.066;2023-02-11T23:49:25;101616.56;;;5.24;80.69
